createdAt,value
2019-05-30T00:01:07.719Z,4.23
2019-05-30T00:03:38.053Z,4.17
2019-05-30T00:06:07.579Z,4.07
2019-05-30T00:08:37.852Z,4.40
2019-05-30T00:11:07.885Z,3.93
2019-05-30T00:13:38.019Z,4.00
2019-05-30T00:16:07.997Z,8.30
2019-05-30T00:18:37.607Z,2.67
2019-05-30T00:21:08.363Z,6.00
2019-05-30T00:23:38.759Z,4.63
2019-05-30T00:26:08.359Z,4.57
2019-05-30T00:28:38.025Z,4.27
2019-05-30T00:31:07.788Z,4.17
2019-05-30T00:33:37.392Z,6.30
2019-05-30T00:36:06.970Z,4.20
2019-05-30T00:38:36.683Z,6.73
2019-05-30T00:41:07.802Z,3.93
2019-05-30T00:43:37.638Z,6.20
2019-05-30T00:46:07.620Z,3.23
2019-05-30T00:48:37.517Z,2.97
2019-05-30T00:51:07.595Z,4.57
2019-05-30T00:53:38.050Z,2.77
2019-05-30T00:56:07.958Z,5.07
2019-05-30T00:58:38.246Z,4.73
2019-05-30T01:01:07.934Z,3.37
2019-05-30T01:03:37.351Z,4.63
2019-05-30T01:06:07.409Z,4.47
2019-05-30T01:08:37.117Z,6.73
2019-05-30T01:11:07.379Z,4.00
2019-05-30T01:13:37.480Z,8.13
2019-05-30T01:16:07.679Z,3.73
2019-05-30T01:18:38.171Z,5.37
2019-05-30T01:21:07.736Z,6.17
2019-05-30T01:23:45.056Z,5.03
2019-05-30T01:26:14.976Z,2.77
2019-05-30T01:28:46.800Z,5.13
2019-05-30T01:31:16.465Z,4.03
2019-05-30T01:33:46.505Z,2.60
2019-05-30T01:36:16.100Z,4.90
2019-05-30T01:38:45.642Z,3.43
2019-05-30T01:41:17.580Z,5.77
2019-05-30T01:43:46.710Z,7.17
2019-05-30T01:46:16.564Z,3.73
2019-05-30T01:48:46.249Z,4.27
2019-05-30T01:51:18.589Z,4.63
2019-05-30T01:53:48.970Z,3.90
2019-05-30T01:56:18.663Z,4.03
2019-05-30T01:58:48.561Z,4.20
2019-05-30T02:01:24.806Z,5.87
2019-05-30T02:03:49.968Z,4.70
2019-05-30T02:06:19.587Z,6.40
2019-05-30T02:08:49.497Z,4.63
2019-05-30T02:11:19.982Z,4.97
2019-05-30T02:13:49.724Z,3.47
2019-05-30T02:16:19.851Z,4.50
2019-05-30T02:18:49.695Z,3.80
2019-05-30T02:21:19.176Z,6.37
2019-05-30T02:23:48.808Z,5.47
2019-05-30T02:26:23.130Z,3.87
2019-05-30T02:29:22.846Z,8.63
2019-05-30T02:31:52.825Z,5.80
2019-05-30T02:34:25.083Z,5.50
2019-05-30T02:37:26.980Z,5.57
2019-05-30T02:40:00.207Z,4.90
2019-05-30T02:42:30.558Z,5.57
2019-05-30T02:45:01.406Z,4.17
2019-05-30T02:47:31.709Z,3.43
2019-05-30T02:50:02.367Z,3.67
2019-05-30T02:52:32.845Z,7.67
2019-05-30T02:55:03.934Z,4.93
2019-05-30T02:57:34.562Z,3.63
2019-05-30T03:00:07.384Z,4.87
2019-05-30T03:02:36.118Z,4.10
2019-05-30T03:05:09.295Z,3.87
2019-05-30T03:07:38.780Z,3.63
2019-05-30T03:10:14.553Z,4.77
2019-05-30T03:12:43.264Z,3.47
2019-05-30T03:15:15.605Z,2.83
2019-05-30T03:17:45.540Z,7.70
2019-05-30T03:20:22.776Z,5.57
2019-05-30T03:22:47.536Z,3.93
2019-05-30T03:25:17.474Z,6.20
2019-05-30T03:27:47.785Z,7.53
2019-05-30T03:30:27.371Z,7.00
2019-05-30T03:33:24.436Z,5.23
2019-05-30T03:35:29.510Z,5.17
2019-05-30T03:37:54.547Z,5.03
2019-05-30T03:40:27.663Z,3.20
2019-05-30T03:42:57.574Z,3.90
2019-05-30T03:45:29.071Z,6.20
2019-05-30T03:48:06.577Z,5.37
2019-05-30T03:50:40.045Z,7.37
2019-05-30T03:53:12.040Z,8.30
2019-05-30T03:55:45.905Z,7.10
2019-05-30T03:58:22.545Z,5.07
2019-05-30T04:00:57.726Z,12.03
2019-05-30T04:03:47.823Z,7.53
2019-05-30T04:06:26.558Z,4.90
2019-05-30T04:09:00.891Z,4.73
2019-05-30T04:11:40.135Z,5.97
2019-05-30T04:14:15.691Z,6.20
2019-05-30T04:16:45.261Z,5.53
2019-05-30T04:19:17.732Z,7.03
2019-05-30T04:21:47.996Z,6.03
2019-05-30T04:24:17.478Z,4.13
2019-05-30T04:26:47.089Z,7.07
2019-05-30T04:29:18.851Z,5.07
2019-05-30T04:31:48.495Z,5.37
2019-05-30T04:34:19.574Z,6.93
2019-05-30T04:36:53.241Z,5.57
2019-05-30T04:39:21.049Z,4.67
2019-05-30T04:41:50.835Z,6.33
2019-05-30T04:44:20.883Z,4.67
2019-05-30T04:46:51.020Z,6.77
2019-05-30T04:49:21.695Z,5.93
2019-05-30T04:51:52.790Z,7.63
2019-05-30T04:54:22.334Z,6.90
2019-05-30T04:56:52.321Z,7.93
2019-05-30T04:59:22.314Z,5.63
2019-05-30T05:01:52.063Z,4.83
2019-05-30T05:04:22.085Z,6.33
2019-05-30T05:06:53.077Z,7.27
2019-05-30T05:09:22.706Z,8.40
2019-05-30T05:11:52.527Z,4.67
2019-05-30T05:14:22.834Z,4.00
2019-05-30T05:16:52.618Z,10.40
2019-05-30T05:19:26.218Z,7.40
2019-05-30T05:21:54.884Z,7.10
2019-05-30T05:24:24.642Z,8.17
2019-05-30T05:26:54.949Z,6.63
2019-05-30T05:29:25.403Z,6.33
2019-05-30T05:31:56.678Z,7.27
2019-05-30T05:34:26.532Z,5.47
2019-05-30T05:36:56.079Z,5.53
2019-05-30T05:39:26.070Z,5.23
2019-05-30T05:41:56.801Z,8.83
2019-05-30T05:44:29.075Z,9.37
2019-05-30T05:46:58.850Z,4.63
2019-05-30T05:49:28.854Z,7.03
2019-05-30T05:51:58.675Z,12.70
2019-05-30T05:54:29.221Z,4.93
2019-05-30T05:56:58.881Z,7.33
2019-05-30T05:59:29.387Z,4.13
2019-05-30T06:02:00.705Z,4.83
2019-05-30T06:04:30.734Z,8.07
2019-05-30T06:07:00.294Z,8.30
2019-05-30T06:09:30.643Z,7.47
2019-05-30T06:12:01.097Z,7.27
2019-05-30T06:14:32.876Z,6.73
2019-05-30T06:17:02.737Z,5.33
2019-05-30T06:19:45.956Z,8.80
2019-05-30T06:22:05.234Z,7.13
2019-05-30T06:24:36.410Z,7.60
2019-05-30T06:27:06.488Z,6.93
2019-05-30T06:29:38.074Z,6.17
2019-05-30T06:32:08.477Z,7.90
2019-05-30T06:34:39.542Z,9.73
2019-05-30T06:37:12.304Z,7.00
2019-05-30T06:39:42.202Z,14.43
2019-05-30T06:42:11.904Z,6.47
2019-05-30T06:44:41.835Z,4.33
2019-05-30T06:47:12.624Z,10.83
2019-05-30T06:49:42.710Z,9.23
2019-05-30T06:52:13.877Z,6.07
2019-05-30T06:54:51.494Z,8.90
2019-05-30T06:57:23.145Z,9.03
2019-05-30T06:59:54.712Z,8.10
2019-05-30T07:02:26.233Z,8.07
2019-05-30T07:04:58.823Z,4.73
2019-05-30T07:07:33.456Z,9.13
2019-05-30T07:10:11.079Z,10.97
2019-05-30T07:12:42.385Z,7.37
2019-05-30T07:15:13.065Z,6.27
2019-05-30T07:17:43.575Z,7.90
2019-05-30T07:20:17.217Z,5.97
2019-05-30T07:22:48.083Z,6.33
2019-05-30T07:25:18.996Z,8.77
2019-05-30T07:27:50.185Z,8.73
2019-05-30T07:30:20.657Z,8.43
2019-05-30T07:32:51.428Z,9.47
2019-05-30T07:35:22.061Z,9.20
2019-05-30T07:37:52.110Z,7.50
2019-05-30T07:40:27.211Z,9.07
2019-05-30T07:42:56.762Z,10.77
2019-05-30T07:45:27.143Z,9.47
2019-05-30T07:47:57.335Z,6.97
2019-05-30T07:50:28.263Z,7.20
2019-05-30T07:52:59.377Z,9.77
2019-05-30T07:55:28.986Z,9.03
2019-05-30T07:58:00.909Z,9.80
2019-05-30T08:00:31.850Z,14.23
2019-05-30T08:03:04.259Z,10.53
2019-05-30T08:05:34.765Z,9.73
2019-05-30T08:08:05.403Z,10.47
2019-05-30T08:10:35.843Z,8.37
2019-05-30T08:13:06.960Z,10.93
2019-05-30T08:15:43.573Z,10.03
2019-05-30T08:18:08.912Z,12.87
2019-05-30T08:20:40.910Z,14.27
2019-05-30T08:23:11.104Z,11.77
2019-05-30T08:25:41.577Z,8.57
2019-05-30T08:28:13.211Z,7.80
2019-05-30T08:30:43.732Z,9.87
2019-05-30T08:33:21.495Z,8.10
2019-05-30T08:35:50.527Z,7.67
2019-05-30T08:38:20.921Z,8.40
2019-05-30T08:40:50.752Z,7.47
2019-05-30T08:43:25.410Z,10.73
2019-05-30T08:45:55.311Z,7.17
2019-05-30T08:48:25.730Z,6.80
2019-05-30T08:50:59.906Z,6.30
2019-05-30T08:53:30.169Z,9.53
2019-05-30T08:56:00.255Z,7.83
2019-05-30T08:58:30.698Z,7.40
2019-05-30T09:01:01.024Z,6.00
2019-05-30T09:03:30.854Z,14.40
2019-05-30T09:06:03.983Z,6.20
2019-05-30T09:08:32.143Z,8.73
2019-05-30T09:11:01.665Z,8.70
2019-05-30T09:13:31.680Z,6.70
2019-05-30T09:16:01.860Z,9.10
2019-05-30T09:18:31.429Z,5.47
2019-05-30T09:21:00.944Z,6.93
2019-05-30T09:23:30.733Z,7.20
2019-05-30T09:26:01.093Z,6.63
2019-05-30T09:28:31.239Z,6.20
2019-05-30T09:31:04.661Z,5.97
2019-05-30T09:33:34.964Z,8.53
2019-05-30T09:36:13.265Z,8.80
2019-05-30T09:38:38.845Z,9.90
2019-05-30T09:41:08.872Z,9.03
2019-05-30T09:43:39.871Z,9.17
2019-05-30T09:46:10.269Z,6.70
2019-05-30T09:48:41.502Z,12.67
2019-05-30T09:51:12.004Z,8.40
2019-05-30T09:53:42.729Z,8.07
2019-05-30T09:56:16.670Z,9.23
2019-05-30T09:58:49.803Z,8.63
2019-05-30T10:01:20.428Z,8.77
2019-05-30T10:03:50.279Z,5.87
2019-05-30T10:06:29.159Z,10.00
2019-05-30T10:08:53.099Z,10.47
2019-05-30T10:11:26.998Z,10.43
2019-05-30T10:14:03.092Z,9.23
2019-05-30T10:16:36.154Z,10.57
2019-05-30T10:19:08.168Z,10.10
2019-05-30T10:21:39.481Z,10.83
2019-05-30T10:24:09.133Z,9.33
2019-05-30T10:26:38.756Z,12.17
2019-05-30T10:29:08.407Z,8.83
2019-05-30T10:31:38.681Z,10.93
2019-05-30T10:34:08.623Z,8.93
2019-05-30T10:36:44.433Z,8.97
2019-05-30T10:39:10.242Z,10.40
2019-05-30T10:41:39.750Z,9.80
2019-05-30T10:44:09.663Z,10.40
2019-05-30T10:46:39.789Z,14.37
2019-05-30T10:49:09.738Z,13.77
2019-05-30T10:51:39.560Z,10.43
2019-05-30T10:54:09.576Z,9.40
2019-05-30T10:56:39.288Z,9.37
2019-05-30T10:59:09.111Z,7.83
2019-05-30T11:01:38.980Z,9.83
2019-05-30T11:04:08.848Z,7.80
2019-05-30T11:07:01.250Z,11.80
2019-05-30T11:09:21.017Z,10.17
2019-05-30T11:11:51.209Z,10.67
2019-05-30T11:14:21.349Z,8.90
2019-05-30T11:16:51.795Z,10.23
2019-05-30T11:19:21.915Z,6.93
2019-05-30T11:21:54.303Z,9.10
2019-05-30T11:24:24.725Z,7.67
2019-05-30T11:26:55.565Z,8.33
2019-05-30T11:29:25.833Z,9.63
2019-05-30T11:31:56.987Z,11.33
2019-05-30T11:34:27.044Z,10.03
2019-05-30T11:36:57.318Z,6.93
2019-05-30T11:39:27.724Z,11.10
2019-05-30T11:41:57.907Z,9.80
2019-05-30T11:44:27.745Z,9.47
2019-05-30T11:46:58.021Z,8.03
2019-05-30T11:49:28.437Z,9.20
2019-05-30T11:51:59.990Z,7.63
2019-05-30T11:54:30.521Z,8.53
2019-05-30T11:57:00.686Z,6.90
2019-05-30T11:59:31.134Z,4.93
2019-05-30T12:02:01.167Z,8.00
2019-05-30T12:04:30.864Z,7.97
2019-05-30T12:07:01.052Z,7.47
2019-05-30T12:09:31.663Z,7.23
2019-05-30T12:12:01.562Z,6.63
2019-05-30T12:14:31.682Z,7.10
2019-05-30T12:17:01.816Z,4.63
2019-05-30T12:19:32.052Z,7.67
2019-05-30T12:22:02.439Z,6.57
2019-05-30T12:24:32.529Z,5.87
2019-05-30T12:27:02.425Z,8.47
2019-05-30T12:29:32.211Z,8.90
2019-05-30T12:32:03.442Z,5.13
2019-05-30T12:34:33.510Z,6.27
2019-05-30T12:37:03.023Z,4.70
2019-05-30T12:39:32.915Z,5.97
2019-05-30T12:42:03.470Z,6.17
2019-05-30T12:44:33.157Z,17.00
2019-05-30T12:47:03.534Z,11.87
2019-05-30T12:49:33.718Z,13.63
2019-05-30T12:52:03.471Z,16.40
2019-05-30T12:54:33.437Z,15.93
2019-05-30T12:57:03.404Z,21.33
2019-05-30T12:59:33.006Z,24.00
2019-05-30T13:02:03.169Z,26.40
2019-05-30T13:04:32.718Z,20.77
2019-05-30T13:07:03.361Z,20.30
2019-05-30T13:09:33.490Z,23.63
2019-05-30T13:12:03.207Z,20.50
2019-05-30T13:14:32.733Z,23.30
2019-05-30T13:17:03.826Z,24.60
2019-05-30T13:19:33.865Z,29.23
2019-05-30T13:22:03.733Z,32.53
2019-05-30T13:24:33.447Z,29.17
2019-05-30T13:27:03.864Z,28.43
2019-05-30T13:29:33.891Z,26.93
2019-05-30T13:32:04.629Z,19.33
2019-05-30T13:34:34.389Z,25.10
2019-05-30T13:37:05.090Z,28.43
2019-05-30T13:39:34.922Z,27.13
2019-05-30T13:42:05.856Z,31.43
2019-05-30T13:44:35.804Z,23.63
2019-05-30T13:47:06.703Z,32.90
2019-05-30T13:49:37.302Z,29.17
2019-05-30T13:52:07.355Z,27.90
2019-05-30T13:54:37.676Z,33.63
2019-05-30T13:57:07.902Z,30.77
2019-05-30T13:59:37.761Z,27.87
2019-05-30T14:02:08.234Z,25.80
2019-05-30T14:04:38.457Z,31.13
2019-05-30T14:07:08.539Z,28.27
2019-05-30T14:09:38.051Z,24.30
2019-05-30T14:12:08.721Z,32.03
2019-05-30T14:14:38.366Z,31.07
2019-05-30T14:17:10.378Z,28.63
2019-05-30T14:19:39.777Z,25.93
2019-05-30T14:22:09.770Z,21.63
2019-05-30T14:24:39.346Z,31.57
2019-05-30T14:27:09.632Z,24.57
2019-05-30T14:29:40.137Z,27.60
2019-05-30T14:32:10.091Z,23.43
2019-05-30T14:34:39.982Z,29.43
2019-05-30T14:37:10.455Z,24.80
2019-05-30T14:39:40.403Z,22.27
2019-05-30T14:42:11.228Z,25.63
2019-05-30T14:44:41.083Z,24.47
2019-05-30T14:47:11.008Z,28.87
2019-05-30T14:49:41.476Z,29.37
2019-05-30T14:52:11.791Z,21.93
2019-05-30T14:54:42.817Z,34.97
2019-05-30T14:57:13.065Z,23.17
2019-05-30T14:59:42.830Z,31.63
2019-05-30T15:02:13.311Z,29.17
2019-05-30T15:04:43.529Z,30.57
2019-05-30T15:07:13.617Z,26.57
2019-05-30T15:09:43.382Z,33.07
2019-05-30T15:12:13.150Z,36.80
2019-05-30T15:14:43.379Z,29.77
2019-05-30T15:17:14.291Z,32.60
2019-05-30T15:19:44.738Z,33.37
2019-05-30T15:22:17.080Z,34.00
2019-05-30T15:24:46.000Z,33.17
2019-05-30T15:27:16.273Z,33.03
2019-05-30T15:29:45.999Z,29.30
2019-05-30T15:32:16.607Z,29.93
2019-05-30T15:34:46.945Z,28.33
2019-05-30T15:37:17.342Z,35.50
2019-05-30T15:39:46.875Z,27.10
2019-05-30T15:42:17.555Z,26.77
2019-05-30T15:44:47.704Z,27.23
2019-05-30T15:47:18.447Z,32.03
2019-05-30T15:49:52.037Z,27.10
2019-05-30T15:52:19.935Z,35.47
2019-05-30T15:54:51.074Z,28.63
2019-05-30T15:57:23.146Z,26.13
2019-05-30T15:59:53.030Z,25.60
2019-05-30T16:02:22.699Z,23.93
2019-05-30T16:04:52.639Z,23.20
2019-05-30T16:07:22.507Z,24.57
2019-05-30T16:09:52.060Z,21.57
2019-05-30T16:12:21.693Z,25.50
2019-05-30T16:14:51.493Z,21.57
2019-05-30T16:17:21.762Z,22.77
2019-05-30T16:19:51.714Z,26.37
2019-05-30T16:22:22.648Z,22.80
2019-05-30T16:24:52.349Z,28.37
2019-05-30T16:27:22.235Z,23.87
2019-05-30T16:29:51.760Z,20.40
2019-05-30T16:32:22.196Z,15.60
2019-05-30T16:34:52.997Z,15.63
2019-05-30T16:37:23.078Z,14.23
2019-05-30T16:40:05.285Z,16.03
2019-05-30T16:42:24.315Z,17.33
2019-05-30T16:44:53.758Z,13.70
2019-05-30T16:47:23.463Z,17.27
2019-05-30T16:49:53.710Z,19.67
2019-05-30T16:52:23.627Z,16.77
2019-05-30T16:54:53.180Z,18.60
2019-05-30T16:57:23.018Z,21.03
2019-05-30T16:59:52.499Z,18.20
2019-05-30T17:02:22.849Z,23.83
2019-05-30T17:04:52.823Z,19.37
2019-05-30T17:07:23.390Z,22.87
2019-05-30T17:09:53.291Z,16.33
2019-05-30T17:12:23.755Z,20.93
2019-05-30T17:14:53.950Z,21.67
2019-05-30T17:17:24.289Z,14.87
2019-05-30T17:19:54.790Z,22.50
2019-05-30T17:22:24.932Z,26.87
2019-05-30T17:24:56.321Z,26.03
2019-05-30T17:27:25.973Z,36.30
2019-05-30T17:29:55.832Z,30.53
2019-05-30T17:32:25.950Z,33.13
2019-05-30T17:34:55.522Z,33.00
2019-05-30T17:37:26.469Z,38.20
2019-05-30T17:39:56.550Z,35.97
2019-05-30T17:42:26.969Z,35.33
2019-05-30T17:44:56.443Z,37.40
2019-05-30T17:47:27.470Z,40.80
2019-05-30T17:49:57.332Z,35.57
2019-05-30T17:52:27.980Z,28.50
2019-05-30T17:54:57.546Z,37.07
2019-05-30T17:57:30.353Z,34.97
2019-05-30T17:59:59.864Z,33.93
2019-05-30T18:02:30.882Z,31.60
2019-05-30T18:05:00.697Z,30.13
2019-05-30T18:07:31.262Z,24.07
2019-05-30T18:10:01.472Z,23.93
2019-05-30T18:12:31.268Z,23.47
2019-05-30T18:15:00.741Z,22.27
2019-05-30T18:17:39.582Z,17.10
2019-05-30T18:20:10.061Z,21.70
2019-05-30T18:22:40.530Z,18.60
2019-05-30T18:25:11.424Z,17.17
2019-05-30T18:27:41.632Z,18.87
2019-05-30T18:30:14.654Z,12.87
2019-05-30T18:32:44.934Z,14.57
2019-05-30T18:35:16.570Z,13.67
2019-05-30T18:37:47.223Z,11.87
2019-05-30T18:40:22.730Z,8.67
2019-05-30T18:42:54.484Z,11.47
2019-05-30T18:45:35.195Z,11.80
2019-05-30T18:48:05.491Z,12.87
2019-05-30T18:50:35.764Z,12.17
2019-05-30T18:53:06.617Z,10.07
2019-05-30T18:55:37.201Z,10.33
2019-05-30T18:58:07.768Z,12.70
2019-05-30T19:00:38.262Z,12.07
2019-05-30T19:03:10.738Z,9.10
2019-05-30T19:05:41.650Z,11.83
2019-05-30T19:08:12.009Z,12.80
2019-05-30T19:10:42.294Z,9.97
2019-05-30T19:13:12.101Z,10.33
2019-05-30T19:15:42.517Z,14.60
2019-05-30T19:18:12.721Z,14.33
2019-05-30T19:20:42.845Z,16.03
2019-05-30T19:23:14.215Z,18.43
2019-05-30T19:25:44.478Z,15.50
2019-05-30T19:28:15.157Z,18.37
2019-05-30T19:30:47.169Z,20.20
2019-05-30T19:33:20.503Z,20.93
2019-05-30T19:35:49.990Z,23.17
2019-05-30T19:38:20.551Z,22.60
2019-05-30T19:40:50.986Z,16.20
2019-05-30T19:43:24.367Z,23.63
2019-05-30T19:45:56.299Z,23.33
2019-05-30T19:48:30.179Z,19.93
2019-05-30T19:51:02.194Z,23.57
2019-05-30T19:53:32.879Z,24.23
2019-05-30T19:56:04.264Z,21.67
2019-05-30T19:58:35.532Z,13.90
2019-05-30T20:01:06.806Z,17.37
2019-05-30T20:03:43.609Z,13.93
2019-05-30T20:06:10.361Z,18.20
2019-05-30T20:08:51.361Z,17.90
2019-05-30T20:11:12.065Z,20.30
2019-05-30T20:13:41.949Z,16.67
2019-05-30T20:16:12.183Z,18.57
2019-05-30T20:18:42.812Z,16.20
2019-05-30T20:21:12.850Z,15.10
2019-05-30T20:23:53.421Z,17.50
2019-05-30T20:26:16.640Z,15.33
2019-05-30T20:28:52.219Z,13.67
2019-05-30T20:31:22.372Z,11.77
2019-05-30T20:33:54.260Z,11.43
2019-05-30T20:36:24.260Z,15.40
2019-05-30T20:38:54.009Z,14.33
2019-05-30T20:41:24.481Z,17.40
2019-05-30T20:43:54.889Z,11.13
2019-05-30T20:46:24.638Z,15.63
2019-05-30T20:48:54.788Z,16.90
2019-05-30T20:51:25.747Z,16.73
2019-05-30T20:53:57.102Z,14.83
2019-05-30T20:56:26.954Z,12.13
2019-05-30T20:59:00.336Z,12.80
2019-05-30T21:01:30.369Z,13.17
2019-05-30T21:04:01.125Z,9.57
2019-05-30T21:06:32.642Z,9.17
2019-05-30T21:09:03.466Z,10.60
2019-05-30T21:11:36.100Z,13.70
2019-05-30T21:14:07.162Z,10.13
2019-05-30T21:16:44.269Z,12.47
2019-05-30T21:19:14.813Z,13.37
2019-05-30T21:21:44.613Z,11.40
2019-05-30T21:24:15.259Z,14.37
2019-05-30T21:26:47.703Z,10.67
2019-05-30T21:29:17.555Z,12.50
2019-05-30T21:31:47.667Z,13.00
2019-05-30T21:34:17.882Z,12.57
2019-05-30T21:36:48.080Z,9.70
2019-05-30T21:39:18.363Z,11.20
2019-05-30T21:41:48.545Z,11.33
2019-05-30T21:44:18.485Z,11.13
2019-05-30T21:46:49.473Z,13.60
2019-05-30T21:49:19.143Z,8.30
2019-05-30T21:51:49.734Z,10.57
2019-05-30T21:54:19.734Z,8.80
2019-05-30T21:56:50.324Z,9.93
2019-05-30T21:59:20.792Z,14.50
2019-05-30T22:01:56.555Z,10.47
2019-05-30T22:04:23.012Z,10.80
2019-05-30T22:06:52.684Z,8.77
2019-05-30T22:09:22.874Z,9.97
2019-05-30T22:11:52.917Z,10.23
2019-05-30T22:14:22.668Z,10.73
2019-05-30T22:16:52.283Z,10.20
2019-05-30T22:19:26.269Z,11.30
2019-05-30T22:21:55.883Z,8.27
2019-05-30T22:24:25.701Z,11.07
2019-05-30T22:26:55.571Z,11.53
2019-05-30T22:29:26.311Z,13.87
2019-05-30T22:31:56.253Z,6.60
2019-05-30T22:34:25.851Z,9.40
2019-05-30T22:36:56.527Z,9.73
2019-05-30T22:39:28.850Z,11.23
2019-05-30T22:41:59.015Z,9.33
2019-05-30T22:44:29.038Z,11.57
2019-05-30T22:46:58.804Z,14.07
2019-05-30T22:49:29.112Z,8.43
2019-05-30T22:51:59.114Z,11.97
2019-05-30T22:54:32.560Z,10.87
2019-05-30T22:57:02.469Z,11.97
2019-05-30T22:59:31.979Z,11.70
2019-05-30T23:02:02.258Z,14.63
2019-05-30T23:04:32.015Z,14.20
2019-05-30T23:07:02.745Z,13.30
2019-05-30T23:09:33.277Z,13.77
2019-05-30T23:12:03.146Z,13.67
2019-05-30T23:14:32.914Z,18.03
2019-05-30T23:17:09.061Z,14.70
2019-05-30T23:19:39.076Z,16.17
2019-05-30T23:22:08.730Z,14.73
2019-05-30T23:24:39.030Z,14.03
2019-05-30T23:27:08.606Z,13.57
2019-05-30T23:29:38.266Z,17.37
2019-05-30T23:32:08.037Z,16.30
2019-05-30T23:34:37.584Z,17.53
2019-05-30T23:37:08.060Z,16.37
2019-05-30T23:39:43.126Z,19.20
2019-05-30T23:42:12.936Z,17.70
2019-05-30T23:44:42.601Z,14.13
2019-05-30T23:47:12.467Z,12.60
2019-05-30T23:49:42.071Z,13.90
2019-05-30T23:52:19.571Z,16.87
2019-05-30T23:54:50.043Z,11.57
2019-05-30T23:57:19.891Z,14.37
2019-05-30T23:59:50.783Z,15.80
